sensor_id;sensor_type;location;lat;lon;timestamp;P1;durP1;ratioP1;P2;durP2;ratioP2
35245;SDS011;21379;50.962;6.960;2023-05-28T00:02:09;9.65;;;3.78;;
35245;SDS011;21379;50.962;6.960;2023-05-28T00:04:36;11.07;;;3.13;;
35245;SDS011;21379;50.962;6.960;2023-05-28T00:07:03;6.35;;;3.03;;
35245;SDS011;21379;50.962;6.960;2023-05-28T00:09:32;6.90;;;3.22;;
35245;SDS011;21379;50.962;6.960;2023-05-28T00:11:59;10.60;;;2.83;;
35245;SDS011;21379;50.962;6.960;2023-05-28T00:14:28;6.40;;;2.97;;
35245;SDS011;21379;50.962;6.960;2023-05-28T00:16:55;4.65;;;2.85;;
35245;SDS011;21379;50.962;6.960;2023-05-28T00:19:21;5.35;;;2.63;;
35245;SDS011;21379;50.962;6.960;2023-05-28T00:21:48;11.00;;;3.28;;
35245;SDS011;21379;50.962;6.960;2023-05-28T00:24:15;6.97;;;3.30;;
35245;SDS011;21379;50.962;6.960;2023-05-28T00:26:42;10.48;;;2.47;;
35245;SDS011;21379;50.962;6.960;2023-05-28T00:29:09;7.55;;;2.63;;
35245;SDS011;21379;50.962;6.960;2023-05-28T00:31:39;5.82;;;2.95;;
35245;SDS011;21379;50.962;6.960;2023-05-28T00:34:06;7.70;;;3.17;;
35245;SDS011;21379;50.962;6.960;2023-05-28T00:36:33;12.00;;;3.10;;
35245;SDS011;21379;50.962;6.960;2023-05-28T00:39:01;13.82;;;2.83;;
35245;SDS011;21379;50.962;6.960;2023-05-28T00:41:32;6.25;;;2.47;;
35245;SDS011;21379;50.962;6.960;2023-05-28T00:44:00;5.38;;;2.70;;
35245;SDS011;21379;50.962;6.960;2023-05-28T00:46:28;6.65;;;2.70;;
35245;SDS011;21379;50.962;6.960;2023-05-28T00:48:56;6.32;;;2.58;;
35245;SDS011;21379;50.962;6.960;2023-05-28T00:51:23;4.20;;;2.70;;
35245;SDS011;21379;50.962;6.960;2023-05-28T00:53:52;8.63;;;3.15;;
35245;SDS011;21379;50.962;6.960;2023-05-28T00:56:20;7.80;;;2.90;;
35245;SDS011;21379;50.962;6.960;2023-05-28T00:58:51;7.50;;;2.60;;
35245;SDS011;21379;50.962;6.960;2023-05-28T01:01:20;6.63;;;2.83;;
35245;SDS011;21379;50.962;6.960;2023-05-28T01:03:50;6.85;;;2.78;;
35245;SDS011;21379;50.962;6.960;2023-05-28T01:06:18;7.82;;;3.80;;
35245;SDS011;21379;50.962;6.960;2023-05-28T01:08:47;6.88;;;2.38;;
35245;SDS011;21379;50.962;6.960;2023-05-28T01:11:15;5.47;;;2.47;;
35245;SDS011;21379;50.962;6.960;2023-05-28T01:13:44;6.57;;;3.05;;
35245;SDS011;21379;50.962;6.960;2023-05-28T01:16:12;5.70;;;2.78;;
35245;SDS011;21379;50.962;6.960;2023-05-28T01:18:40;7.68;;;2.88;;
35245;SDS011;21379;50.962;6.960;2023-05-28T01:21:10;8.73;;;3.08;;
35245;SDS011;21379;50.962;6.960;2023-05-28T01:23:38;5.40;;;1.95;;
35245;SDS011;21379;50.962;6.960;2023-05-28T01:26:08;5.95;;;2.55;;
35245;SDS011;21379;50.962;6.960;2023-05-28T01:28:35;6.53;;;2.83;;
35245;SDS011;21379;50.962;6.960;2023-05-28T01:31:08;10.13;;;3.33;;
35245;SDS011;21379;50.962;6.960;2023-05-28T01:33:35;6.95;;;2.47;;
35245;SDS011;21379;50.962;6.960;2023-05-28T01:36:02;5.13;;;2.63;;
35245;SDS011;21379;50.962;6.960;2023-05-28T01:38:32;5.85;;;2.72;;
35245;SDS011;21379;50.962;6.960;2023-05-28T01:41:03;7.88;;;2.35;;
35245;SDS011;21379;50.962;6.960;2023-05-28T01:43:31;12.27;;;3.20;;
35245;SDS011;21379;50.962;6.960;2023-05-28T01:45:58;6.78;;;3.47;;
35245;SDS011;21379;50.962;6.960;2023-05-28T01:48:26;8.55;;;2.92;;
35245;SDS011;21379;50.962;6.960;2023-05-28T01:50:54;11.05;;;3.38;;
35245;SDS011;21379;50.962;6.960;2023-05-28T01:53:22;8.20;;;3.25;;
35245;SDS011;21379;50.962;6.960;2023-05-28T01:55:50;5.38;;;2.92;;
35245;SDS011;21379;50.962;6.960;2023-05-28T01:58:22;4.30;;;2.20;;
35245;SDS011;21379;50.962;6.960;2023-05-28T02:00:52;5.65;;;2.92;;
35245;SDS011;21379;50.962;6.960;2023-05-28T02:03:26;6.25;;;2.38;;
35245;SDS011;21379;50.962;6.960;2023-05-28T02:05:52;7.95;;;2.53;;
35245;SDS011;21379;50.962;6.960;2023-05-28T02:08:19;7.25;;;2.70;;
35245;SDS011;21379;50.962;6.960;2023-05-28T02:10:46;6.38;;;2.45;;
35245;SDS011;21379;50.962;6.960;2023-05-28T02:13:13;7.65;;;2.58;;
35245;SDS011;21379;50.962;6.960;2023-05-28T02:15:43;8.35;;;2.90;;
35245;SDS011;21379;50.962;6.960;2023-05-28T02:18:10;6.68;;;2.22;;
35245;SDS011;21379;50.962;6.960;2023-05-28T02:20:38;10.20;;;3.05;;
35245;SDS011;21379;50.962;6.960;2023-05-28T02:23:05;4.30;;;2.95;;
35245;SDS011;21379;50.962;6.960;2023-05-28T02:25:32;5.13;;;2.20;;
35245;SDS011;21379;50.962;6.960;2023-05-28T02:27:58;3.90;;;2.67;;
35245;SDS011;21379;50.962;6.960;2023-05-28T02:30:25;7.65;;;3.00;;
35245;SDS011;21379;50.962;6.960;2023-05-28T02:32:54;6.93;;;2.50;;
35245;SDS011;21379;50.962;6.960;2023-05-28T02:35:21;7.38;;;3.03;;
35245;SDS011;21379;50.962;6.960;2023-05-28T02:37:48;7.75;;;2.67;;
35245;SDS011;21379;50.962;6.960;2023-05-28T02:40:15;6.03;;;3.53;;
35245;SDS011;21379;50.962;6.960;2023-05-28T02:42:43;8.02;;;2.65;;
35245;SDS011;21379;50.962;6.960;2023-05-28T02:45:10;7.00;;;2.55;;
35245;SDS011;21379;50.962;6.960;2023-05-28T02:47:37;8.73;;;2.92;;
35245;SDS011;21379;50.962;6.960;2023-05-28T02:50:07;8.40;;;2.75;;
35245;SDS011;21379;50.962;6.960;2023-05-28T02:52:55;6.53;;;3.15;;
35245;SDS011;21379;50.962;6.960;2023-05-28T02:55:22;7.35;;;2.65;;
35245;SDS011;21379;50.962;6.960;2023-05-28T02:57:49;7.72;;;2.33;;
35245;SDS011;21379;50.962;6.960;2023-05-28T03:00:18;5.20;;;3.03;;
35245;SDS011;21379;50.962;6.960;2023-05-28T03:02:46;15.40;;;2.58;;
35245;SDS011;21379;50.962;6.960;2023-05-28T03:05:14;5.25;;;2.08;;
35245;SDS011;21379;50.962;6.960;2023-05-28T03:07:41;7.65;;;2.88;;
35245;SDS011;21379;50.962;6.960;2023-05-28T03:10:09;7.35;;;2.60;;
35245;SDS011;21379;50.962;6.960;2023-05-28T03:12:36;7.38;;;3.15;;
35245;SDS011;21379;50.962;6.960;2023-05-28T03:15:03;6.80;;;2.35;;
35245;SDS011;21379;50.962;6.960;2023-05-28T03:17:31;10.07;;;2.97;;
35245;SDS011;21379;50.962;6.960;2023-05-28T03:19:58;7.10;;;3.10;;
35245;SDS011;21379;50.962;6.960;2023-05-28T03:22:26;7.95;;;2.95;;
35245;SDS011;21379;50.962;6.960;2023-05-28T03:24:53;6.20;;;2.30;;
35245;SDS011;21379;50.962;6.960;2023-05-28T03:27:22;8.05;;;2.90;;
35245;SDS011;21379;50.962;6.960;2023-05-28T03:29:49;6.82;;;2.83;;
35245;SDS011;21379;50.962;6.960;2023-05-28T03:32:23;7.57;;;2.47;;
35245;SDS011;21379;50.962;6.960;2023-05-28T03:34:50;6.20;;;2.58;;
35245;SDS011;21379;50.962;6.960;2023-05-28T03:37:23;9.98;;;3.42;;
35245;SDS011;21379;50.962;6.960;2023-05-28T03:39:52;8.48;;;2.75;;
35245;SDS011;21379;50.962;6.960;2023-05-28T03:42:19;5.38;;;2.72;;
35245;SDS011;21379;50.962;6.960;2023-05-28T03:44:46;7.88;;;2.58;;
35245;SDS011;21379;50.962;6.960;2023-05-28T03:47:13;5.80;;;2.45;;
35245;SDS011;21379;50.962;6.960;2023-05-28T03:49:40;10.05;;;3.17;;
35245;SDS011;21379;50.962;6.960;2023-05-28T03:52:08;7.40;;;2.08;;
35245;SDS011;21379;50.962;6.960;2023-05-28T03:54:49;3.95;;;2.20;;
35245;SDS011;21379;50.962;6.960;2023-05-28T03:57:16;3.50;;;2.25;;
35245;SDS011;21379;50.962;6.960;2023-05-28T03:59:43;4.20;;;2.40;;
35245;SDS011;21379;50.962;6.960;2023-05-28T04:02:10;6.38;;;3.33;;
35245;SDS011;21379;50.962;6.960;2023-05-28T04:04:37;6.75;;;2.58;;
35245;SDS011;21379;50.962;6.960;2023-05-28T04:07:04;13.25;;;2.40;;
35245;SDS011;21379;50.962;6.960;2023-05-28T04:09:32;3.95;;;2.58;;
35245;SDS011;21379;50.962;6.960;2023-05-28T04:12:01;8.02;;;2.35;;
35245;SDS011;21379;50.962;6.960;2023-05-28T04:14:28;3.78;;;2.10;;
35245;SDS011;21379;50.962;6.960;2023-05-28T04:16:55;5.88;;;2.65;;
35245;SDS011;21379;50.962;6.960;2023-05-28T04:19:22;4.15;;;2.35;;
35245;SDS011;21379;50.962;6.960;2023-05-28T04:21:49;5.45;;;2.38;;
35245;SDS011;21379;50.962;6.960;2023-05-28T04:24:16;6.90;;;2.60;;
35245;SDS011;21379;50.962;6.960;2023-05-28T04:26:43;7.10;;;3.10;;
35245;SDS011;21379;50.962;6.960;2023-05-28T04:29:12;8.23;;;3.42;;
35245;SDS011;21379;50.962;6.960;2023-05-28T04:31:40;7.78;;;2.65;;
35245;SDS011;21379;50.962;6.960;2023-05-28T04:34:09;7.43;;;3.10;;
35245;SDS011;21379;50.962;6.960;2023-05-28T04:36:36;6.32;;;2.53;;
35245;SDS011;21379;50.962;6.960;2023-05-28T04:39:03;9.23;;;3.17;;
35245;SDS011;21379;50.962;6.960;2023-05-28T04:41:30;6.90;;;3.00;;
35245;SDS011;21379;50.962;6.960;2023-05-28T04:43:57;7.53;;;3.40;;
35245;SDS011;21379;50.962;6.960;2023-05-28T04:46:25;5.47;;;2.25;;
35245;SDS011;21379;50.962;6.960;2023-05-28T04:48:54;7.80;;;3.25;;
35245;SDS011;21379;50.962;6.960;2023-05-28T04:51:21;6.80;;;3.00;;
35245;SDS011;21379;50.962;6.960;2023-05-28T04:53:48;5.50;;;2.58;;
35245;SDS011;21379;50.962;6.960;2023-05-28T04:56:15;12.05;;;3.47;;
35245;SDS011;21379;50.962;6.960;2023-05-28T04:58:42;8.05;;;3.60;;
35245;SDS011;21379;50.962;6.960;2023-05-28T05:01:12;11.07;;;3.03;;
35245;SDS011;21379;50.962;6.960;2023-05-28T05:03:42;6.72;;;2.45;;
35245;SDS011;21379;50.962;6.960;2023-05-28T05:06:08;5.90;;;2.58;;
35245;SDS011;21379;50.962;6.960;2023-05-28T05:08:36;6.28;;;2.80;;
35245;SDS011;21379;50.962;6.960;2023-05-28T05:11:03;6.53;;;2.67;;
35245;SDS011;21379;50.962;6.960;2023-05-28T05:13:31;6.85;;;2.95;;
35245;SDS011;21379;50.962;6.960;2023-05-28T05:15:58;9.77;;;3.30;;
35245;SDS011;21379;50.962;6.960;2023-05-28T05:18:25;9.27;;;2.97;;
35245;SDS011;21379;50.962;6.960;2023-05-28T05:20:54;6.97;;;2.70;;
35245;SDS011;21379;50.962;6.960;2023-05-28T05:23:21;8.82;;;3.25;;
35245;SDS011;21379;50.962;6.960;2023-05-28T05:25:48;7.55;;;2.40;;
35245;SDS011;21379;50.962;6.960;2023-05-28T05:28:16;4.05;;;2.72;;
35245;SDS011;21379;50.962;6.960;2023-05-28T05:30:43;4.80;;;2.53;;
35245;SDS011;21379;50.962;6.960;2023-05-28T05:33:10;11.68;;;3.83;;
35245;SDS011;21379;50.962;6.960;2023-05-28T05:36:08;9.70;;;3.42;;
35245;SDS011;21379;50.962;6.960;2023-05-28T05:38:56;13.73;;;3.08;;
35245;SDS011;21379;50.962;6.960;2023-05-28T05:41:34;7.53;;;3.33;;
35245;SDS011;21379;50.962;6.960;2023-05-28T05:44:12;9.30;;;3.63;;
35245;SDS011;21379;50.962;6.960;2023-05-28T05:46:39;10.25;;;3.55;;
35245;SDS011;21379;50.962;6.960;2023-05-28T05:49:06;6.00;;;2.40;;
35245;SDS011;21379;50.962;6.960;2023-05-28T05:51:36;12.20;;;3.78;;
35245;SDS011;21379;50.962;6.960;2023-05-28T05:54:03;7.18;;;3.67;;
35245;SDS011;21379;50.962;6.960;2023-05-28T05:56:30;11.95;;;3.88;;
35245;SDS011;21379;50.962;6.960;2023-05-28T05:58:58;9.85;;;3.42;;
35245;SDS011;21379;50.962;6.960;2023-05-28T06:01:25;12.93;;;3.20;;
35245;SDS011;21379;50.962;6.960;2023-05-28T06:03:52;9.40;;;3.20;;
35245;SDS011;21379;50.962;6.960;2023-05-28T06:06:46;7.90;;;3.70;;
35245;SDS011;21379;50.962;6.960;2023-05-28T06:09:36;10.52;;;4.15;;
35245;SDS011;21379;50.962;6.960;2023-05-28T06:12:09;5.57;;;2.53;;
35245;SDS011;21379;50.962;6.960;2023-05-28T06:14:36;8.30;;;3.13;;
35245;SDS011;21379;50.962;6.960;2023-05-28T06:17:03;7.32;;;2.80;;
35245;SDS011;21379;50.962;6.960;2023-05-28T06:19:30;7.93;;;2.72;;
35245;SDS011;21379;50.962;6.960;2023-05-28T06:22:01;4.65;;;2.25;;
35245;SDS011;21379;50.962;6.960;2023-05-28T06:24:29;8.85;;;2.65;;
35245;SDS011;21379;50.962;6.960;2023-05-28T06:26:55;5.45;;;2.42;;
35245;SDS011;21379;50.962;6.960;2023-05-28T06:29:23;5.75;;;2.47;;
35245;SDS011;21379;50.962;6.960;2023-05-28T06:31:50;7.03;;;2.80;;
35245;SDS011;21379;50.962;6.960;2023-05-28T06:34:17;8.27;;;2.30;;
35245;SDS011;21379;50.962;6.960;2023-05-28T06:36:44;5.85;;;2.83;;
35245;SDS011;21379;50.962;6.960;2023-05-28T06:39:13;6.15;;;2.65;;
35245;SDS011;21379;50.962;6.960;2023-05-28T06:41:44;3.45;;;2.55;;
35245;SDS011;21379;50.962;6.960;2023-05-28T06:44:18;8.93;;;2.60;;
35245;SDS011;21379;50.962;6.960;2023-05-28T06:46:53;7.68;;;2.42;;
35245;SDS011;21379;50.962;6.960;2023-05-28T06:49:21;6.20;;;2.80;;
35245;SDS011;21379;50.962;6.960;2023-05-28T06:51:48;7.18;;;2.85;;
35245;SDS011;21379;50.962;6.960;2023-05-28T06:54:16;3.92;;;2.50;;
35245;SDS011;21379;50.962;6.960;2023-05-28T06:56:43;10.02;;;2.72;;
35245;SDS011;21379;50.962;6.960;2023-05-28T06:59:34;6.90;;;2.90;;
35245;SDS011;21379;50.962;6.960;2023-05-28T07:02:04;6.53;;;3.08;;
35245;SDS011;21379;50.962;6.960;2023-05-28T07:04:56;5.35;;;2.78;;
35245;SDS011;21379;50.962;6.960;2023-05-28T07:07:28;7.28;;;2.72;;
35245;SDS011;21379;50.962;6.960;2023-05-28T07:09:56;7.20;;;3.67;;
35245;SDS011;21379;50.962;6.960;2023-05-28T07:12:23;9.82;;;3.05;;
35245;SDS011;21379;50.962;6.960;2023-05-28T07:14:53;10.18;;;3.08;;
35245;SDS011;21379;50.962;6.960;2023-05-28T07:17:20;7.97;;;1.92;;
35245;SDS011;21379;50.962;6.960;2023-05-28T07:19:49;4.55;;;2.40;;
35245;SDS011;21379;50.962;6.960;2023-05-28T07:22:23;7.03;;;3.00;;
35245;SDS011;21379;50.962;6.960;2023-05-28T07:24:50;6.93;;;2.47;;
35245;SDS011;21379;50.962;6.960;2023-05-28T07:27:18;7.13;;;2.58;;
35245;SDS011;21379;50.962;6.960;2023-05-28T07:29:45;10.05;;;3.20;;
35245;SDS011;21379;50.962;6.960;2023-05-28T07:32:16;9.07;;;2.90;;
35245;SDS011;21379;50.962;6.960;2023-05-28T07:34:43;5.15;;;2.70;;
35245;SDS011;21379;50.962;6.960;2023-05-28T07:37:12;5.38;;;2.90;;
35245;SDS011;21379;50.962;6.960;2023-05-28T07:39:40;6.10;;;2.42;;
35245;SDS011;21379;50.962;6.960;2023-05-28T07:42:07;9.43;;;2.97;;
35245;SDS011;21379;50.962;6.960;2023-05-28T07:44:39;5.40;;;2.47;;
35245;SDS011;21379;50.962;6.960;2023-05-28T07:47:06;7.22;;;2.50;;
35245;SDS011;21379;50.962;6.960;2023-05-28T07:49:52;10.70;;;2.97;;
35245;SDS011;21379;50.962;6.960;2023-05-28T07:52:24;5.57;;;2.47;;
35245;SDS011;21379;50.962;6.960;2023-05-28T07:54:55;4.00;;;2.10;;
35245;SDS011;21379;50.962;6.960;2023-05-28T07:57:24;6.40;;;2.30;;
35245;SDS011;21379;50.962;6.960;2023-05-28T07:59:52;6.95;;;2.75;;
35245;SDS011;21379;50.962;6.960;2023-05-28T08:02:19;7.70;;;2.40;;
35245;SDS011;21379;50.962;6.960;2023-05-28T08:04:47;5.82;;;2.85;;
35245;SDS011;21379;50.962;6.960;2023-05-28T08:07:15;4.93;;;2.20;;
35245;SDS011;21379;50.962;6.960;2023-05-28T08:09:42;5.63;;;2.67;;
35245;SDS011;21379;50.962;6.960;2023-05-28T08:12:11;4.47;;;1.98;;
35245;SDS011;21379;50.962;6.960;2023-05-28T08:14:38;5.63;;;2.05;;
35245;SDS011;21379;50.962;6.960;2023-05-28T08:17:09;7.75;;;2.35;;
35245;SDS011;21379;50.962;6.960;2023-05-28T08:19:47;7.75;;;2.05;;
35245;SDS011;21379;50.962;6.960;2023-05-28T08:22:31;8.75;;;2.50;;
35245;SDS011;21379;50.962;6.960;2023-05-28T08:24:59;6.90;;;2.38;;
35245;SDS011;21379;50.962;6.960;2023-05-28T08:27:26;5.45;;;2.40;;
35245;SDS011;21379;50.962;6.960;2023-05-28T08:29:53;5.22;;;2.17;;
35245;SDS011;21379;50.962;6.960;2023-05-28T08:32:22;5.00;;;1.75;;
35245;SDS011;21379;50.962;6.960;2023-05-28T08:34:49;6.00;;;1.90;;
35245;SDS011;21379;50.962;6.960;2023-05-28T08:37:16;3.30;;;1.75;;
35245;SDS011;21379;50.962;6.960;2023-05-28T08:40:12;7.78;;;2.25;;
35245;SDS011;21379;50.962;6.960;2023-05-28T08:42:40;7.10;;;2.05;;
35245;SDS011;21379;50.962;6.960;2023-05-28T08:45:07;4.88;;;2.13;;
35245;SDS011;21379;50.962;6.960;2023-05-28T08:47:38;6.32;;;2.50;;
35245;SDS011;21379;50.962;6.960;2023-05-28T08:52:53;3.75;;;1.98;;
35245;SDS011;21379;50.962;6.960;2023-05-28T08:55:20;3.85;;;1.85;;
35245;SDS011;21379;50.962;6.960;2023-05-28T08:57:53;6.55;;;2.60;;
35245;SDS011;21379;50.962;6.960;2023-05-28T09:00:20;4.47;;;1.90;;
35245;SDS011;21379;50.962;6.960;2023-05-28T09:03:18;3.95;;;1.70;;
35245;SDS011;21379;50.962;6.960;2023-05-28T09:05:46;2.78;;;1.48;;
35245;SDS011;21379;50.962;6.960;2023-05-28T09:08:13;6.78;;;1.88;;
35245;SDS011;21379;50.962;6.960;2023-05-28T09:10:42;5.10;;;2.00;;
35245;SDS011;21379;50.962;6.960;2023-05-28T09:13:09;7.63;;;1.85;;
35245;SDS011;21379;50.962;6.960;2023-05-28T09:15:36;4.38;;;1.70;;
35245;SDS011;21379;50.962;6.960;2023-05-28T09:18:07;7.60;;;2.13;;
35245;SDS011;21379;50.962;6.960;2023-05-28T09:20:36;4.88;;;2.28;;
35245;SDS011;21379;50.962;6.960;2023-05-28T09:23:04;2.45;;;1.55;;
35245;SDS011;21379;50.962;6.960;2023-05-28T09:25:58;2.92;;;1.55;;
35245;SDS011;21379;50.962;6.960;2023-05-28T09:28:31;3.60;;;1.50;;
35245;SDS011;21379;50.962;6.960;2023-05-28T09:31:02;4.53;;;1.70;;
35245;SDS011;21379;50.962;6.960;2023-05-28T09:33:29;4.43;;;1.92;;
35245;SDS011;21379;50.962;6.960;2023-05-28T09:36:01;8.68;;;2.63;;
35245;SDS011;21379;50.962;6.960;2023-05-28T09:38:37;7.30;;;2.00;;
35245;SDS011;21379;50.962;6.960;2023-05-28T09:41:05;3.88;;;2.00;;
35245;SDS011;21379;50.962;6.960;2023-05-28T09:43:36;4.05;;;1.92;;
35245;SDS011;21379;50.962;6.960;2023-05-28T09:46:07;5.75;;;1.92;;
35245;SDS011;21379;50.962;6.960;2023-05-28T09:48:34;3.22;;;1.73;;
35245;SDS011;21379;50.962;6.960;2023-05-28T09:51:03;5.15;;;2.35;;
35245;SDS011;21379;50.962;6.960;2023-05-28T09:53:31;5.63;;;2.22;;
35245;SDS011;21379;50.962;6.960;2023-05-28T09:56:02;5.35;;;1.80;;
35245;SDS011;21379;50.962;6.960;2023-05-28T09:58:30;3.83;;;1.65;;
35245;SDS011;21379;50.962;6.960;2023-05-28T10:01:00;4.45;;;2.13;;
35245;SDS011;21379;50.962;6.960;2023-05-28T10:03:34;4.80;;;1.33;;
35245;SDS011;21379;50.962;6.960;2023-05-28T10:06:06;6.45;;;1.30;;
35245;SDS011;21379;50.962;6.960;2023-05-28T10:08:37;3.22;;;1.50;;
35245;SDS011;21379;50.962;6.960;2023-05-28T10:11:07;5.00;;;1.60;;
35245;SDS011;21379;50.962;6.960;2023-05-28T10:13:38;2.53;;;1.27;;
35245;SDS011;21379;50.962;6.960;2023-05-28T10:16:06;6.10;;;1.38;;
35245;SDS011;21379;50.962;6.960;2023-05-28T10:18:34;8.10;;;1.73;;
35245;SDS011;21379;50.962;6.960;2023-05-28T10:21:01;2.25;;;1.30;;
35245;SDS011;21379;50.962;6.960;2023-05-28T10:23:31;3.58;;;1.77;;
35245;SDS011;21379;50.962;6.960;2023-05-28T10:25:59;2.05;;;1.55;;
35245;SDS011;21379;50.962;6.960;2023-05-28T10:28:27;4.60;;;1.60;;
35245;SDS011;21379;50.962;6.960;2023-05-28T10:30:59;10.13;;;1.50;;
35245;SDS011;21379;50.962;6.960;2023-05-28T10:33:29;4.73;;;1.90;;
35245;SDS011;21379;50.962;6.960;2023-05-28T10:35:56;3.38;;;1.50;;
35245;SDS011;21379;50.962;6.960;2023-05-28T10:38:25;4.18;;;1.92;;
35245;SDS011;21379;50.962;6.960;2023-05-28T10:40:59;3.22;;;1.50;;
35245;SDS011;21379;50.962;6.960;2023-05-28T10:43:39;1.98;;;1.30;;
35245;SDS011;21379;50.962;6.960;2023-05-28T10:46:11;6.85;;;1.50;;
35245;SDS011;21379;50.962;6.960;2023-05-28T10:48:40;3.53;;;1.88;;
35245;SDS011;21379;50.962;6.960;2023-05-28T10:51:42;3.47;;;1.30;;
35245;SDS011;21379;50.962;6.960;2023-05-28T10:54:20;3.10;;;1.55;;
35245;SDS011;21379;50.962;6.960;2023-05-28T10:57:09;4.05;;;1.75;;
35245;SDS011;21379;50.962;6.960;2023-05-28T10:59:37;6.30;;;2.15;;
35245;SDS011;21379;50.962;6.960;2023-05-28T11:02:05;7.05;;;2.20;;
35245;SDS011;21379;50.962;6.960;2023-05-28T11:04:33;5.10;;;1.75;;
35245;SDS011;21379;50.962;6.960;2023-05-28T11:07:00;6.00;;;1.80;;
35245;SDS011;21379;50.962;6.960;2023-05-28T11:09:27;3.65;;;1.73;;
35245;SDS011;21379;50.962;6.960;2023-05-28T11:11:57;3.05;;;1.67;;
35245;SDS011;21379;50.962;6.960;2023-05-28T11:14:29;2.85;;;1.52;;
35245;SDS011;21379;50.962;6.960;2023-05-28T11:17:00;6.95;;;1.88;;
35245;SDS011;21379;50.962;6.960;2023-05-28T11:19:27;2.65;;;1.83;;
35245;SDS011;21379;50.962;6.960;2023-05-28T11:21:54;3.20;;;1.73;;
35245;SDS011;21379;50.962;6.960;2023-05-28T11:24:21;2.88;;;1.52;;
35245;SDS011;21379;50.962;6.960;2023-05-28T11:26:50;4.07;;;1.83;;
35245;SDS011;21379;50.962;6.960;2023-05-28T11:29:19;3.65;;;1.63;;
35245;SDS011;21379;50.962;6.960;2023-05-28T11:31:48;4.03;;;1.52;;
35245;SDS011;21379;50.962;6.960;2023-05-28T11:34:18;3.97;;;1.60;;
35245;SDS011;21379;50.962;6.960;2023-05-28T11:36:46;4.75;;;1.58;;
35245;SDS011;21379;50.962;6.960;2023-05-28T11:39:13;3.17;;;1.80;;
35245;SDS011;21379;50.962;6.960;2023-05-28T11:41:40;3.30;;;1.40;;
35245;SDS011;21379;50.962;6.960;2023-05-28T11:46:52;4.00;;;1.40;;
35245;SDS011;21379;50.962;6.960;2023-05-28T11:49:20;6.07;;;2.15;;
35245;SDS011;21379;50.962;6.960;2023-05-28T11:51:49;3.15;;;2.10;;
35245;SDS011;21379;50.962;6.960;2023-05-28T11:54:17;4.60;;;1.70;;
35245;SDS011;21379;50.962;6.960;2023-05-28T11:56:47;4.55;;;1.67;;
35245;SDS011;21379;50.962;6.960;2023-05-28T11:59:15;2.97;;;1.70;;
35245;SDS011;21379;50.962;6.960;2023-05-28T12:01:42;4.10;;;1.70;;
35245;SDS011;21379;50.962;6.960;2023-05-28T12:04:12;5.53;;;1.70;;
35245;SDS011;21379;50.962;6.960;2023-05-28T12:06:51;4.13;;;1.20;;
35245;SDS011;21379;50.962;6.960;2023-05-28T12:09:18;2.97;;;2.08;;
35245;SDS011;21379;50.962;6.960;2023-05-28T12:12:00;4.75;;;1.70;;
35245;SDS011;21379;50.962;6.960;2023-05-28T12:14:29;3.78;;;2.00;;
35245;SDS011;21379;50.962;6.960;2023-05-28T12:17:00;5.50;;;1.98;;
35245;SDS011;21379;50.962;6.960;2023-05-28T12:19:32;3.72;;;1.92;;
35245;SDS011;21379;50.962;6.960;2023-05-28T12:22:00;2.20;;;1.83;;
35245;SDS011;21379;50.962;6.960;2023-05-28T12:24:28;4.30;;;2.10;;
35245;SDS011;21379;50.962;6.960;2023-05-28T12:26:55;3.50;;;1.92;;
35245;SDS011;21379;50.962;6.960;2023-05-28T12:29:22;3.65;;;1.60;;
35245;SDS011;21379;50.962;6.960;2023-05-28T12:31:59;4.07;;;2.10;;
35245;SDS011;21379;50.962;6.960;2023-05-28T12:34:26;3.25;;;1.80;;
35245;SDS011;21379;50.962;6.960;2023-05-28T12:36:54;2.03;;;1.45;;
35245;SDS011;21379;50.962;6.960;2023-05-28T12:39:21;5.95;;;1.98;;
35245;SDS011;21379;50.962;6.960;2023-05-28T12:41:48;5.15;;;2.15;;
35245;SDS011;21379;50.962;6.960;2023-05-28T12:44:15;3.40;;;1.92;;
35245;SDS011;21379;50.962;6.960;2023-05-28T12:46:41;4.47;;;2.35;;
35245;SDS011;21379;50.962;6.960;2023-05-28T12:49:09;4.03;;;1.85;;
35245;SDS011;21379;50.962;6.960;2023-05-28T12:51:35;4.25;;;1.85;;
35245;SDS011;21379;50.962;6.960;2023-05-28T12:54:05;3.17;;;1.83;;
35245;SDS011;21379;50.962;6.960;2023-05-28T12:56:33;3.45;;;1.50;;
35245;SDS011;21379;50.962;6.960;2023-05-28T12:59:00;3.22;;;1.70;;
35245;SDS011;21379;50.962;6.960;2023-05-28T13:01:27;5.60;;;1.85;;
35245;SDS011;21379;50.962;6.960;2023-05-28T13:03:54;4.53;;;2.28;;
35245;SDS011;21379;50.962;6.960;2023-05-28T13:06:20;3.42;;;1.73;;
35245;SDS011;21379;50.962;6.960;2023-05-28T13:08:48;4.68;;;2.22;;
35245;SDS011;21379;50.962;6.960;2023-05-28T13:11:16;2.90;;;1.45;;
35245;SDS011;21379;50.962;6.960;2023-05-28T13:13:43;2.80;;;1.77;;
35245;SDS011;21379;50.962;6.960;2023-05-28T13:16:10;3.75;;;1.50;;
35245;SDS011;21379;50.962;6.960;2023-05-28T13:18:37;4.10;;;1.73;;
35245;SDS011;21379;50.962;6.960;2023-05-28T13:21:04;4.05;;;1.88;;
35245;SDS011;21379;50.962;6.960;2023-05-28T13:23:31;3.65;;;2.00;;
35245;SDS011;21379;50.962;6.960;2023-05-28T13:25:58;1.75;;;1.38;;
35245;SDS011;21379;50.962;6.960;2023-05-28T13:28:27;4.95;;;2.15;;
35245;SDS011;21379;50.962;6.960;2023-05-28T13:30:53;2.88;;;1.73;;
35245;SDS011;21379;50.962;6.960;2023-05-28T13:33:20;2.85;;;1.73;;
35245;SDS011;21379;50.962;6.960;2023-05-28T13:35:47;4.40;;;1.90;;
35245;SDS011;21379;50.962;6.960;2023-05-28T13:38:14;3.92;;;1.70;;
35245;SDS011;21379;50.962;6.960;2023-05-28T13:40:42;4.60;;;1.75;;
35245;SDS011;21379;50.962;6.960;2023-05-28T13:43:09;3.08;;;1.65;;
35245;SDS011;21379;50.962;6.960;2023-05-28T13:45:41;3.63;;;1.65;;
35245;SDS011;21379;50.962;6.960;2023-05-28T13:48:08;2.75;;;1.55;;
35245;SDS011;21379;50.962;6.960;2023-05-28T13:50:35;3.17;;;1.75;;
35245;SDS011;21379;50.962;6.960;2023-05-28T13:53:02;3.95;;;1.67;;
35245;SDS011;21379;50.962;6.960;2023-05-28T13:55:29;3.22;;;1.70;;
35245;SDS011;21379;50.962;6.960;2023-05-28T13:57:56;2.92;;;1.70;;
35245;SDS011;21379;50.962;6.960;2023-05-28T14:00:23;3.45;;;1.73;;
35245;SDS011;21379;50.962;6.960;2023-05-28T14:02:51;4.35;;;1.98;;
35245;SDS011;21379;50.962;6.960;2023-05-28T14:05:18;3.75;;;1.80;;
35245;SDS011;21379;50.962;6.960;2023-05-28T14:07:45;3.47;;;1.95;;
35245;SDS011;21379;50.962;6.960;2023-05-28T14:10:12;6.43;;;2.05;;
35245;SDS011;21379;50.962;6.960;2023-05-28T14:12:38;3.15;;;1.88;;
35245;SDS011;21379;50.962;6.960;2023-05-28T14:15:06;4.55;;;1.85;;
35245;SDS011;21379;50.962;6.960;2023-05-28T14:17:33;4.45;;;1.95;;
35245;SDS011;21379;50.962;6.960;2023-05-28T14:20:01;3.63;;;2.13;;
35245;SDS011;21379;50.962;6.960;2023-05-28T14:22:30;5.25;;;1.80;;
35245;SDS011;21379;50.962;6.960;2023-05-28T14:24:57;2.78;;;1.75;;
35245;SDS011;21379;50.962;6.960;2023-05-28T14:27:24;7.32;;;1.55;;
35245;SDS011;21379;50.962;6.960;2023-05-28T14:29:51;3.28;;;1.63;;
35245;SDS011;21379;50.962;6.960;2023-05-28T14:32:18;3.17;;;1.95;;
35245;SDS011;21379;50.962;6.960;2023-05-28T14:34:45;3.50;;;1.80;;
35245;SDS011;21379;50.962;6.960;2023-05-28T14:37:13;6.65;;;2.45;;
35245;SDS011;21379;50.962;6.960;2023-05-28T14:39:42;5.45;;;2.10;;
35245;SDS011;21379;50.962;6.960;2023-05-28T14:42:09;3.75;;;2.03;;
35245;SDS011;21379;50.962;6.960;2023-05-28T14:44:36;4.57;;;2.35;;
35245;SDS011;21379;50.962;6.960;2023-05-28T14:47:03;2.95;;;2.00;;
35245;SDS011;21379;50.962;6.960;2023-05-28T14:49:30;1.45;;;1.25;;
35245;SDS011;21379;50.962;6.960;2023-05-28T14:51:57;3.50;;;2.28;;
35245;SDS011;21379;50.962;6.960;2023-05-28T14:54:25;2.75;;;1.38;;
35245;SDS011;21379;50.962;6.960;2023-05-28T14:56:52;2.53;;;1.73;;
35245;SDS011;21379;50.962;6.960;2023-05-28T14:59:19;4.25;;;1.80;;
35245;SDS011;21379;50.962;6.960;2023-05-28T15:01:46;5.28;;;1.98;;
35245;SDS011;21379;50.962;6.960;2023-05-28T15:04:13;4.53;;;1.80;;